This is the latest recevied weather packets stored in our database for station/object KI5GCD-13. If no packets are shown the sender has not sent any weather packets the latest 10 day(s).
| Time | Temp. | Humidity | Pressure | Rain* | Wind** | Luminosity | Snow |
|---|---|---|---|---|---|---|---|
| 1777941287 | 22.22° C | 64% | 1002.1 hPa | 0 mm | 0 m/s | - | - |
| 1777940987 | 22.78° C | 64% | 1001.9 hPa | 0 mm | 0.89 m/s, 216° | - | - |
| 1777940687 | 22.78° C | 65% | 1002.2 hPa | 0 mm | 0 m/s | - | - |
| 1777940387 | 22.78° C | 64% | 1002.1 hPa | 0 mm | 0 m/s | - | - |
| 1777940087 | 22.78° C | 62% | 1002.2 hPa | 0 mm | 1.34 m/s, 231° | - | - |
| 1777939787 | 23.33° C | 61% | 1002.1 hPa | 0 mm | 1.34 m/s, 199° | - | - |
| 1777939487 | 23.33° C | 62% | 1002.2 hPa | 0 mm | 0.89 m/s, 210° | - | - |
| 1777939187 | 23.33° C | 61% | 1002 hPa | 0 mm | 0.89 m/s, 206° | - | - |
| 1777938887 | 23.33° C | 60% | 1001.6 hPa | 0 mm | 1.79 m/s, 241° | - | - |
| 1777937987 | 23.89° C | 60% | 1001.9 hPa | 0 mm | 0.89 m/s, 216° | - | - |
| 1777937688 | 23.89° C | 59% | 1001.7 hPa | 0 mm | 0.89 m/s, 140° | - | - |
| 1777937387 | 23.89° C | 61% | 1001.6 hPa | 0 mm | 0.45 m/s, 210° | - | - |
| 1777937087 | 24.44° C | 58% | 1001.7 hPa | 0 mm | 0.89 m/s, 211° | - | - |
| 1777936787 | 24.44° C | 58% | 1001.7 hPa | 0 mm | 0.45 m/s, 326° | - | - |
| 1777936487 | 24.44° C | 57% | 1002 hPa | 0 mm | 1.79 m/s, 178° | - | - |
| 1777936187 | 25° C | 56% | 1001.7 hPa | 0 mm | 1.34 m/s, 261° | - | - |
| 1777935888 | 25° C | 56% | 1001.7 hPa | 0 mm | 3.13 m/s, 255° | - | - |
| 1777935587 | 24.44° C | 56% | 1001.6 hPa | 0 mm | 0.89 m/s, 214° | - | - |
| 1777935287 | 25° C | 55% | 1001.7 hPa | 0 mm | 2.24 m/s, 186° | - | - |
| 1777934987 | 25° C | 55% | 1001.7 hPa | 0 mm | 1.79 m/s, 175° | - | - |
| 1777934687 | 25° C | 58% | 1001.6 hPa | 0 mm | 0.45 m/s, 243° | - | - |
| 1777934387 | 25° C | 56% | 1001.6 hPa | 0 mm | 2.24 m/s, 244° | - | - |
| 1777934088 | 25° C | 55% | 1001.6 hPa | 0 mm | 2.68 m/s, 183° | - | - |
| 1777933788 | 25.56° C | 57% | 1001.6 hPa | 0 mm | 0.89 m/s, 236° | - | - |
| 1777933487 | 25.56° C | 55% | 1001.5 hPa | 0 mm | 1.34 m/s, 245° | - | - |
* Rain latest hour (hover to see other rain measurements)
** Current wind speed in m/s (hover to see current wind gust speed)